sensor_id;sensor_type;location;lat;lon;timestamp;P1;durP1;ratioP1;P2;durP2;ratioP2
11187;SDS011;5650;52.700;7.306;2022-07-23T00:01:20;3.42;;;2.28;;
11187;SDS011;5650;52.700;7.306;2022-07-23T00:03:48;4.30;;;2.05;;
11187;SDS011;5650;52.700;7.306;2022-07-23T00:06:15;7.88;;;2.38;;
11187;SDS011;5650;52.700;7.306;2022-07-23T00:08:50;6.82;;;2.20;;
11187;SDS011;5650;52.700;7.306;2022-07-23T00:11:17;5.15;;;2.40;;
11187;SDS011;5650;52.700;7.306;2022-07-23T00:13:54;11.73;;;2.40;;
11187;SDS011;5650;52.700;7.306;2022-07-23T00:16:33;4.47;;;2.22;;
11187;SDS011;5650;52.700;7.306;2022-07-23T00:19:00;3.70;;;1.88;;
11187;SDS011;5650;52.700;7.306;2022-07-23T00:21:33;5.57;;;1.90;;
11187;SDS011;5650;52.700;7.306;2022-07-23T00:24:00;3.42;;;2.05;;
11187;SDS011;5650;52.700;7.306;2022-07-23T00:26:33;3.33;;;1.90;;
11187;SDS011;5650;52.700;7.306;2022-07-23T00:29:08;4.53;;;2.15;;
11187;SDS011;5650;52.700;7.306;2022-07-23T00:31:45;5.07;;;2.28;;
11187;SDS011;5650;52.700;7.306;2022-07-23T00:34:12;3.05;;;1.98;;
11187;SDS011;5650;52.700;7.306;2022-07-23T00:36:42;6.00;;;1.98;;
11187;SDS011;5650;52.700;7.306;2022-07-23T00:39:12;4.18;;;2.40;;
11187;SDS011;5650;52.700;7.306;2022-07-23T00:41:42;6.05;;;1.73;;
11187;SDS011;5650;52.700;7.306;2022-07-23T00:44:16;5.45;;;1.80;;
11187;SDS011;5650;52.700;7.306;2022-07-23T00:46:52;5.00;;;2.47;;
11187;SDS011;5650;52.700;7.306;2022-07-23T00:49:23;9.75;;;2.60;;
11187;SDS011;5650;52.700;7.306;2022-07-23T00:51:52;6.22;;;2.38;;
11187;SDS011;5650;52.700;7.306;2022-07-23T00:54:22;4.78;;;2.60;;
11187;SDS011;5650;52.700;7.306;2022-07-23T00:56:50;3.83;;;2.20;;
11187;SDS011;5650;52.700;7.306;2022-07-23T00:59:17;7.07;;;2.65;;
11187;SDS011;5650;52.700;7.306;2022-07-23T01:01:45;4.90;;;2.80;;
11187;SDS011;5650;52.700;7.306;2022-07-23T01:04:15;6.70;;;2.60;;
11187;SDS011;5650;52.700;7.306;2022-07-23T01:06:49;3.42;;;2.53;;
11187;SDS011;5650;52.700;7.306;2022-07-23T01:09:16;6.07;;;2.40;;
11187;SDS011;5650;52.700;7.306;2022-07-23T01:11:43;5.13;;;2.72;;
11187;SDS011;5650;52.700;7.306;2022-07-23T01:14:18;6.53;;;2.50;;
11187;SDS011;5650;52.700;7.306;2022-07-23T01:16:47;6.22;;;2.15;;
11187;SDS011;5650;52.700;7.306;2022-07-23T01:19:17;5.28;;;2.63;;
11187;SDS011;5650;52.700;7.306;2022-07-23T01:21:45;3.17;;;2.25;;
11187;SDS011;5650;52.700;7.306;2022-07-23T01:24:19;4.20;;;2.20;;
11187;SDS011;5650;52.700;7.306;2022-07-23T01:26:49;2.38;;;1.92;;
11187;SDS011;5650;52.700;7.306;2022-07-23T01:29:25;4.07;;;2.10;;
11187;SDS011;5650;52.700;7.306;2022-07-23T01:31:53;6.43;;;2.30;;
11187;SDS011;5650;52.700;7.306;2022-07-23T01:34:20;4.72;;;2.03;;
11187;SDS011;5650;52.700;7.306;2022-07-23T01:36:47;3.80;;;1.80;;
11187;SDS011;5650;52.700;7.306;2022-07-23T01:39:19;3.85;;;2.30;;
11187;SDS011;5650;52.700;7.306;2022-07-23T01:41:49;7.40;;;2.33;;
11187;SDS011;5650;52.700;7.306;2022-07-23T01:44:19;5.80;;;2.60;;
11187;SDS011;5650;52.700;7.306;2022-07-23T01:46:53;3.53;;;2.33;;
11187;SDS011;5650;52.700;7.306;2022-07-23T01:49:25;4.50;;;2.47;;
11187;SDS011;5650;52.700;7.306;2022-07-23T01:51:53;3.75;;;2.28;;
11187;SDS011;5650;52.700;7.306;2022-07-23T01:54:33;5.43;;;2.38;;
11187;SDS011;5650;52.700;7.306;2022-07-23T01:57:00;5.70;;;2.80;;
11187;SDS011;5650;52.700;7.306;2022-07-23T01:59:28;3.92;;;2.60;;
11187;SDS011;5650;52.700;7.306;2022-07-23T02:01:55;3.15;;;2.25;;
11187;SDS011;5650;52.700;7.306;2022-07-23T02:04:25;4.18;;;2.40;;
11187;SDS011;5650;52.700;7.306;2022-07-23T02:06:53;4.55;;;2.40;;
11187;SDS011;5650;52.700;7.306;2022-07-23T02:09:29;4.22;;;2.55;;
11187;SDS011;5650;52.700;7.306;2022-07-23T02:12:01;3.83;;;2.25;;
11187;SDS011;5650;52.700;7.306;2022-07-23T02:14:28;3.15;;;2.20;;
11187;SDS011;5650;52.700;7.306;2022-07-23T02:17:01;4.95;;;2.60;;
11187;SDS011;5650;52.700;7.306;2022-07-23T02:19:30;5.28;;;2.53;;
11187;SDS011;5650;52.700;7.306;2022-07-23T02:22:02;2.88;;;2.22;;
11187;SDS011;5650;52.700;7.306;2022-07-23T02:24:29;4.75;;;2.85;;
11187;SDS011;5650;52.700;7.306;2022-07-23T02:26:57;2.75;;;2.40;;
11187;SDS011;5650;52.700;7.306;2022-07-23T02:29:26;3.60;;;2.33;;
11187;SDS011;5650;52.700;7.306;2022-07-23T02:31:53;4.35;;;2.78;;
11187;SDS011;5650;52.700;7.306;2022-07-23T02:34:20;4.65;;;2.90;;
11187;SDS011;5650;52.700;7.306;2022-07-23T02:36:49;6.93;;;2.78;;
11187;SDS011;5650;52.700;7.306;2022-07-23T02:39:25;5.53;;;3.28;;
11187;SDS011;5650;52.700;7.306;2022-07-23T02:41:53;4.57;;;3.00;;
11187;SDS011;5650;52.700;7.306;2022-07-23T02:44:20;7.30;;;3.08;;
11187;SDS011;5650;52.700;7.306;2022-07-23T02:46:48;3.75;;;2.90;;
11187;SDS011;5650;52.700;7.306;2022-07-23T02:49:15;7.43;;;3.33;;
11187;SDS011;5650;52.700;7.306;2022-07-23T02:51:43;6.85;;;2.90;;
11187;SDS011;5650;52.700;7.306;2022-07-23T02:54:13;3.20;;;2.63;;
11187;SDS011;5650;52.700;7.306;2022-07-23T02:56:40;5.88;;;2.80;;
11187;SDS011;5650;52.700;7.306;2022-07-23T02:59:13;5.35;;;3.22;;
11187;SDS011;5650;52.700;7.306;2022-07-23T03:01:40;4.38;;;2.88;;
11187;SDS011;5650;52.700;7.306;2022-07-23T03:04:09;5.97;;;3.35;;
11187;SDS011;5650;52.700;7.306;2022-07-23T03:06:45;8.75;;;3.50;;
11187;SDS011;5650;52.700;7.306;2022-07-23T03:09:12;9.90;;;3.85;;
11187;SDS011;5650;52.700;7.306;2022-07-23T03:11:42;6.95;;;3.88;;
11187;SDS011;5650;52.700;7.306;2022-07-23T03:14:09;5.15;;;4.00;;
11187;SDS011;5650;52.700;7.306;2022-07-23T03:16:41;6.70;;;4.25;;
11187;SDS011;5650;52.700;7.306;2022-07-23T03:19:18;6.88;;;4.15;;
11187;SDS011;5650;52.700;7.306;2022-07-23T03:21:46;5.45;;;4.28;;
11187;SDS011;5650;52.700;7.306;2022-07-23T03:24:14;6.85;;;5.13;;
11187;SDS011;5650;52.700;7.306;2022-07-23T03:26:48;6.28;;;4.25;;
11187;SDS011;5650;52.700;7.306;2022-07-23T03:29:16;6.95;;;4.53;;
11187;SDS011;5650;52.700;7.306;2022-07-23T03:31:48;5.65;;;4.43;;
11187;SDS011;5650;52.700;7.306;2022-07-23T03:34:15;11.48;;;4.97;;
11187;SDS011;5650;52.700;7.306;2022-07-23T03:36:53;6.10;;;4.60;;
11187;SDS011;5650;52.700;7.306;2022-07-23T03:39:23;7.13;;;4.50;;
11187;SDS011;5650;52.700;7.306;2022-07-23T03:41:53;5.60;;;4.05;;
11187;SDS011;5650;52.700;7.306;2022-07-23T03:44:32;7.18;;;4.63;;
11187;SDS011;5650;52.700;7.306;2022-07-23T03:47:04;6.55;;;4.32;;
11187;SDS011;5650;52.700;7.306;2022-07-23T03:49:35;6.45;;;4.10;;
11187;SDS011;5650;52.700;7.306;2022-07-23T03:52:05;5.80;;;4.30;;
11187;SDS011;5650;52.700;7.306;2022-07-23T03:54:32;5.72;;;4.47;;
11187;SDS011;5650;52.700;7.306;2022-07-23T03:57:08;7.32;;;5.00;;
11187;SDS011;5650;52.700;7.306;2022-07-23T03:59:38;8.23;;;4.10;;
11187;SDS011;5650;52.700;7.306;2022-07-23T04:02:05;4.53;;;4.10;;
11187;SDS011;5650;52.700;7.306;2022-07-23T04:04:37;4.57;;;4.18;;
11187;SDS011;5650;52.700;7.306;2022-07-23T04:07:07;9.43;;;4.72;;
11187;SDS011;5650;52.700;7.306;2022-07-23T04:09:36;7.47;;;4.28;;
11187;SDS011;5650;52.700;7.306;2022-07-23T04:12:07;5.68;;;4.38;;
11187;SDS011;5650;52.700;7.306;2022-07-23T04:14:37;4.20;;;3.53;;
11187;SDS011;5650;52.700;7.306;2022-07-23T04:17:06;8.52;;;3.83;;
11187;SDS011;5650;52.700;7.306;2022-07-23T04:19:40;3.88;;;2.70;;
11187;SDS011;5650;52.700;7.306;2022-07-23T04:22:09;4.38;;;3.10;;
11187;SDS011;5650;52.700;7.306;2022-07-23T04:24:36;7.22;;;2.85;;
11187;SDS011;5650;52.700;7.306;2022-07-23T04:27:04;10.13;;;3.65;;
11187;SDS011;5650;52.700;7.306;2022-07-23T04:29:31;4.10;;;2.95;;
11187;SDS011;5650;52.700;7.306;2022-07-23T04:31:58;4.70;;;2.70;;
11187;SDS011;5650;52.700;7.306;2022-07-23T04:34:26;4.15;;;2.92;;
11187;SDS011;5650;52.700;7.306;2022-07-23T04:36:54;7.88;;;3.20;;
11187;SDS011;5650;52.700;7.306;2022-07-23T04:39:25;8.52;;;3.80;;
11187;SDS011;5650;52.700;7.306;2022-07-23T04:41:58;6.00;;;3.40;;
11187;SDS011;5650;52.700;7.306;2022-07-23T04:44:31;7.40;;;3.22;;
11187;SDS011;5650;52.700;7.306;2022-07-23T04:46:58;4.72;;;3.40;;
11187;SDS011;5650;52.700;7.306;2022-07-23T04:49:25;7.22;;;3.70;;
11187;SDS011;5650;52.700;7.306;2022-07-23T04:52:03;5.10;;;3.58;;
11187;SDS011;5650;52.700;7.306;2022-07-23T04:54:33;6.32;;;3.92;;
11187;SDS011;5650;52.700;7.306;2022-07-23T04:57:03;7.13;;;3.92;;
11187;SDS011;5650;52.700;7.306;2022-07-23T04:59:30;9.88;;;3.90;;
11187;SDS011;5650;52.700;7.306;2022-07-23T05:02:00;7.75;;;3.35;;
11187;SDS011;5650;52.700;7.306;2022-07-23T05:04:27;4.13;;;3.70;;
11187;SDS011;5650;52.700;7.306;2022-07-23T05:06:56;8.65;;;3.75;;
11187;SDS011;5650;52.700;7.306;2022-07-23T05:09:27;7.60;;;4.50;;
11187;SDS011;5650;52.700;7.306;2022-07-23T05:11:54;5.85;;;3.88;;
11187;SDS011;5650;52.700;7.306;2022-07-23T05:14:21;9.02;;;3.75;;
11187;SDS011;5650;52.700;7.306;2022-07-23T05:16:48;11.90;;;3.72;;
11187;SDS011;5650;52.700;7.306;2022-07-23T05:19:15;4.00;;;3.45;;
11187;SDS011;5650;52.700;7.306;2022-07-23T05:21:46;5.75;;;3.70;;
11187;SDS011;5650;52.700;7.306;2022-07-23T05:24:14;6.25;;;3.60;;
11187;SDS011;5650;52.700;7.306;2022-07-23T05:26:45;7.80;;;3.60;;
11187;SDS011;5650;52.700;7.306;2022-07-23T05:29:12;5.78;;;3.58;;
11187;SDS011;5650;52.700;7.306;2022-07-23T05:31:42;9.85;;;3.47;;
11187;SDS011;5650;52.700;7.306;2022-07-23T05:34:12;10.30;;;3.38;;
11187;SDS011;5650;52.700;7.306;2022-07-23T05:36:43;4.40;;;2.53;;
11187;SDS011;5650;52.700;7.306;2022-07-23T05:39:12;3.63;;;2.40;;
11187;SDS011;5650;52.700;7.306;2022-07-23T05:41:39;5.32;;;2.50;;
11187;SDS011;5650;52.700;7.306;2022-07-23T05:44:27;8.93;;;1.90;;
11187;SDS011;5650;52.700;7.306;2022-07-23T05:46:54;5.13;;;1.75;;
11187;SDS011;5650;52.700;7.306;2022-07-23T05:49:24;8.23;;;1.83;;
11187;SDS011;5650;52.700;7.306;2022-07-23T05:51:51;6.07;;;1.90;;
11187;SDS011;5650;52.700;7.306;2022-07-23T05:54:21;5.47;;;1.98;;
11187;SDS011;5650;52.700;7.306;2022-07-23T05:56:49;7.28;;;1.77;;
11187;SDS011;5650;52.700;7.306;2022-07-23T05:59:17;2.95;;;1.50;;
11187;SDS011;5650;52.700;7.306;2022-07-23T06:01:47;6.68;;;1.73;;
11187;SDS011;5650;52.700;7.306;2022-07-23T06:04:17;3.53;;;1.40;;
11187;SDS011;5650;52.700;7.306;2022-07-23T06:07:05;5.72;;;1.50;;
11187;SDS011;5650;52.700;7.306;2022-07-23T06:09:33;3.67;;;1.60;;
11187;SDS011;5650;52.700;7.306;2022-07-23T06:12:04;6.90;;;1.35;;
11187;SDS011;5650;52.700;7.306;2022-07-23T06:14:31;3.55;;;1.40;;
11187;SDS011;5650;52.700;7.306;2022-07-23T06:17:00;5.55;;;1.60;;
11187;SDS011;5650;52.700;7.306;2022-07-23T06:19:33;5.00;;;1.33;;
11187;SDS011;5650;52.700;7.306;2022-07-23T06:22:00;4.97;;;1.48;;
11187;SDS011;5650;52.700;7.306;2022-07-23T06:24:32;3.53;;;1.52;;
11187;SDS011;5650;52.700;7.306;2022-07-23T06:26:59;7.65;;;1.83;;
11187;SDS011;5650;52.700;7.306;2022-07-23T06:29:30;4.68;;;1.30;;
11187;SDS011;5650;52.700;7.306;2022-07-23T06:32:03;4.97;;;1.60;;
11187;SDS011;5650;52.700;7.306;2022-07-23T06:34:31;3.97;;;1.27;;
11187;SDS011;5650;52.700;7.306;2022-07-23T06:36:58;3.70;;;1.30;;
11187;SDS011;5650;52.700;7.306;2022-07-23T06:39:26;4.28;;;1.40;;
11187;SDS011;5650;52.700;7.306;2022-07-23T06:41:54;3.92;;;1.23;;
11187;SDS011;5650;52.700;7.306;2022-07-23T06:44:22;6.88;;;1.45;;
11187;SDS011;5650;52.700;7.306;2022-07-23T06:46:52;8.50;;;1.48;;
11187;SDS011;5650;52.700;7.306;2022-07-23T06:49:23;4.78;;;1.42;;
11187;SDS011;5650;52.700;7.306;2022-07-23T06:52:00;3.83;;;1.45;;
11187;SDS011;5650;52.700;7.306;2022-07-23T06:54:33;6.90;;;1.25;;
11187;SDS011;5650;52.700;7.306;2022-07-23T06:57:07;5.53;;;1.30;;
11187;SDS011;5650;52.700;7.306;2022-07-23T06:59:35;2.83;;;1.27;;
11187;SDS011;5650;52.700;7.306;2022-07-23T07:02:05;1.65;;;1.00;;
11187;SDS011;5650;52.700;7.306;2022-07-23T07:04:34;3.53;;;1.17;;
11187;SDS011;5650;52.700;7.306;2022-07-23T07:07:02;2.55;;;1.17;;
11187;SDS011;5650;52.700;7.306;2022-07-23T07:09:32;3.17;;;1.10;;
11187;SDS011;5650;52.700;7.306;2022-07-23T07:11:59;3.83;;;1.30;;
11187;SDS011;5650;52.700;7.306;2022-07-23T07:14:29;3.88;;;0.95;;
11187;SDS011;5650;52.700;7.306;2022-07-23T07:16:59;4.28;;;1.40;;
11187;SDS011;5650;52.700;7.306;2022-07-23T07:19:29;2.08;;;1.00;;
11187;SDS011;5650;52.700;7.306;2022-07-23T07:22:00;2.95;;;1.17;;
11187;SDS011;5650;52.700;7.306;2022-07-23T07:24:27;2.85;;;1.10;;
11187;SDS011;5650;52.700;7.306;2022-07-23T07:26:58;5.20;;;1.05;;
11187;SDS011;5650;52.700;7.306;2022-07-23T07:29:29;4.75;;;1.02;;
11187;SDS011;5650;52.700;7.306;2022-07-23T07:31:56;3.42;;;1.10;;
11187;SDS011;5650;52.700;7.306;2022-07-23T07:34:23;1.63;;;0.70;;
11187;SDS011;5650;52.700;7.306;2022-07-23T07:36:58;5.10;;;1.20;;
11187;SDS011;5650;52.700;7.306;2022-07-23T07:39:25;2.42;;;0.95;;
11187;SDS011;5650;52.700;7.306;2022-07-23T07:41:58;1.95;;;0.88;;
11187;SDS011;5650;52.700;7.306;2022-07-23T07:44:25;1.92;;;0.90;;
11187;SDS011;5650;52.700;7.306;2022-07-23T07:46:57;4.38;;;1.00;;
11187;SDS011;5650;52.700;7.306;2022-07-23T07:49:27;3.35;;;0.93;;
11187;SDS011;5650;52.700;7.306;2022-07-23T07:51:54;2.20;;;0.65;;
11187;SDS011;5650;52.700;7.306;2022-07-23T07:54:21;2.97;;;1.00;;
11187;SDS011;5650;52.700;7.306;2022-07-23T07:56:48;1.95;;;0.60;;
11187;SDS011;5650;52.700;7.306;2022-07-23T07:59:18;3.38;;;0.65;;
11187;SDS011;5650;52.700;7.306;2022-07-23T08:01:45;3.42;;;1.02;;
11187;SDS011;5650;52.700;7.306;2022-07-23T08:04:16;3.25;;;0.90;;
11187;SDS011;5650;52.700;7.306;2022-07-23T08:06:43;4.18;;;0.80;;
11187;SDS011;5650;52.700;7.306;2022-07-23T08:09:11;2.45;;;0.95;;
11187;SDS011;5650;52.700;7.306;2022-07-23T08:11:40;4.47;;;1.05;;
11187;SDS011;5650;52.700;7.306;2022-07-23T08:14:07;2.17;;;0.60;;
11187;SDS011;5650;52.700;7.306;2022-07-23T08:16:39;2.72;;;0.98;;
11187;SDS011;5650;52.700;7.306;2022-07-23T08:19:06;2.80;;;0.93;;
11187;SDS011;5650;52.700;7.306;2022-07-23T08:21:35;3.95;;;1.00;;
11187;SDS011;5650;52.700;7.306;2022-07-23T08:24:02;3.38;;;0.95;;
11187;SDS011;5650;52.700;7.306;2022-07-23T08:26:35;2.42;;;0.70;;
11187;SDS011;5650;52.700;7.306;2022-07-23T08:29:02;2.50;;;0.60;;
11187;SDS011;5650;52.700;7.306;2022-07-23T08:31:32;1.67;;;0.70;;
11187;SDS011;5650;52.700;7.306;2022-07-23T08:33:59;2.78;;;1.02;;
11187;SDS011;5650;52.700;7.306;2022-07-23T08:36:36;5.93;;;1.20;;
11187;SDS011;5650;52.700;7.306;2022-07-23T08:39:12;1.38;;;0.63;;
11187;SDS011;5650;52.700;7.306;2022-07-23T08:41:40;1.65;;;0.57;;
11187;SDS011;5650;52.700;7.306;2022-07-23T08:44:10;3.05;;;0.70;;
11187;SDS011;5650;52.700;7.306;2022-07-23T08:46:43;1.85;;;0.70;;
11187;SDS011;5650;52.700;7.306;2022-07-23T08:49:11;2.83;;;0.80;;
11187;SDS011;5650;52.700;7.306;2022-07-23T08:51:40;2.88;;;0.65;;
11187;SDS011;5650;52.700;7.306;2022-07-23T08:54:08;2.65;;;0.70;;
11187;SDS011;5650;52.700;7.306;2022-07-23T08:56:38;2.47;;;0.60;;
11187;SDS011;5650;52.700;7.306;2022-07-23T08:59:09;3.28;;;0.80;;
11187;SDS011;5650;52.700;7.306;2022-07-23T09:01:38;2.22;;;0.90;;
11187;SDS011;5650;52.700;7.306;2022-07-23T09:04:06;2.05;;;0.90;;
11187;SDS011;5650;52.700;7.306;2022-07-23T09:06:33;5.03;;;0.88;;
11187;SDS011;5650;52.700;7.306;2022-07-23T09:09:10;1.20;;;0.70;;
11187;SDS011;5650;52.700;7.306;2022-07-23T09:11:52;1.85;;;0.60;;
11187;SDS011;5650;52.700;7.306;2022-07-23T09:14:38;3.00;;;0.52;;
11187;SDS011;5650;52.700;7.306;2022-07-23T09:17:10;1.73;;;0.77;;
11187;SDS011;5650;52.700;7.306;2022-07-23T09:19:42;2.55;;;0.90;;
11187;SDS011;5650;52.700;7.306;2022-07-23T09:22:17;1.83;;;0.70;;
11187;SDS011;5650;52.700;7.306;2022-07-23T09:25:06;3.35;;;0.80;;
11187;SDS011;5650;52.700;7.306;2022-07-23T09:27:52;4.43;;;1.02;;
11187;SDS011;5650;52.700;7.306;2022-07-23T09:30:21;3.85;;;0.90;;
11187;SDS011;5650;52.700;7.306;2022-07-23T09:35:55;0.88;;;0.55;;
11187;SDS011;5650;52.700;7.306;2022-07-23T09:38:28;1.65;;;0.73;;
11187;SDS011;5650;52.700;7.306;2022-07-23T09:41:06;2.47;;;0.70;;
11187;SDS011;5650;52.700;7.306;2022-07-23T09:43:34;0.73;;;0.50;;
11187;SDS011;5650;52.700;7.306;2022-07-23T09:46:16;1.95;;;0.77;;
11187;SDS011;5650;52.700;7.306;2022-07-23T09:48:48;4.15;;;0.95;;
11187;SDS011;5650;52.700;7.306;2022-07-23T09:51:18;2.33;;;0.80;;
11187;SDS011;5650;52.700;7.306;2022-07-23T09:53:50;1.55;;;0.52;;
11187;SDS011;5650;52.700;7.306;2022-07-23T09:56:25;2.80;;;0.70;;
11187;SDS011;5650;52.700;7.306;2022-07-23T09:58:54;2.05;;;0.70;;
11187;SDS011;5650;52.700;7.306;2022-07-23T10:01:29;1.95;;;0.90;;
11187;SDS011;5650;52.700;7.306;2022-07-23T10:04:05;4.03;;;0.75;;
11187;SDS011;5650;52.700;7.306;2022-07-23T10:06:37;3.95;;;0.65;;
11187;SDS011;5650;52.700;7.306;2022-07-23T10:09:05;0.68;;;0.50;;
11187;SDS011;5650;52.700;7.306;2022-07-23T10:11:35;1.55;;;0.60;;
11187;SDS011;5650;52.700;7.306;2022-07-23T10:14:02;3.95;;;1.00;;
11187;SDS011;5650;52.700;7.306;2022-07-23T10:16:30;1.48;;;0.80;;
11187;SDS011;5650;52.700;7.306;2022-07-23T10:18:58;3.25;;;0.75;;
11187;SDS011;5650;52.700;7.306;2022-07-23T10:21:36;5.15;;;0.80;;
11187;SDS011;5650;52.700;7.306;2022-07-23T10:24:12;2.47;;;0.80;;
11187;SDS011;5650;52.700;7.306;2022-07-23T10:26:50;1.33;;;0.75;;
11187;SDS011;5650;52.700;7.306;2022-07-23T10:29:35;2.30;;;0.70;;
11187;SDS011;5650;52.700;7.306;2022-07-23T10:32:13;1.83;;;0.80;;
11187;SDS011;5650;52.700;7.306;2022-07-23T10:34:52;2.50;;;0.90;;
11187;SDS011;5650;52.700;7.306;2022-07-23T10:37:38;1.80;;;0.98;;
11187;SDS011;5650;52.700;7.306;2022-07-23T10:40:10;1.95;;;0.70;;
11187;SDS011;5650;52.700;7.306;2022-07-23T10:42:46;1.10;;;0.40;;
11187;SDS011;5650;52.700;7.306;2022-07-23T10:45:28;3.50;;;0.65;;
11187;SDS011;5650;52.700;7.306;2022-07-23T10:48:13;0.95;;;0.60;;
11187;SDS011;5650;52.700;7.306;2022-07-23T10:51:05;1.65;;;0.65;;
11187;SDS011;5650;52.700;7.306;2022-07-23T11:02:57;1.50;;;0.65;;
11187;SDS011;5650;52.700;7.306;2022-07-23T11:05:38;4.32;;;0.80;;
11187;SDS011;5650;52.700;7.306;2022-07-23T11:08:10;2.25;;;0.70;;
11187;SDS011;5650;52.700;7.306;2022-07-23T11:10:46;3.50;;;0.60;;
11187;SDS011;5650;52.700;7.306;2022-07-23T11:16:23;2.70;;;0.52;;
11187;SDS011;5650;52.700;7.306;2022-07-23T11:21:48;2.83;;;0.80;;
11187;SDS011;5650;52.700;7.306;2022-07-23T11:24:20;2.47;;;0.80;;
11187;SDS011;5650;52.700;7.306;2022-07-23T11:26:59;1.95;;;0.65;;
11187;SDS011;5650;52.700;7.306;2022-07-23T11:29:37;3.92;;;0.68;;
11187;SDS011;5650;52.700;7.306;2022-07-23T11:35:21;2.90;;;0.70;;
11187;SDS011;5650;52.700;7.306;2022-07-23T11:37:50;2.05;;;0.75;;
11187;SDS011;5650;52.700;7.306;2022-07-23T11:40:24;1.75;;;0.60;;
11187;SDS011;5650;52.700;7.306;2022-07-23T11:43:04;4.93;;;0.70;;
11187;SDS011;5650;52.700;7.306;2022-07-23T11:45:33;1.77;;;0.63;;
11187;SDS011;5650;52.700;7.306;2022-07-23T11:48:17;2.60;;;0.77;;
11187;SDS011;5650;52.700;7.306;2022-07-23T11:50:45;1.08;;;0.50;;
11187;SDS011;5650;52.700;7.306;2022-07-23T11:53:21;3.40;;;0.55;;
11187;SDS011;5650;52.700;7.306;2022-07-23T11:55:49;0.45;;;0.45;;
11187;SDS011;5650;52.700;7.306;2022-07-23T11:58:16;0.77;;;0.52;;
11187;SDS011;5650;52.700;7.306;2022-07-23T12:00:46;1.25;;;0.63;;
11187;SDS011;5650;52.700;7.306;2022-07-23T12:03:13;3.65;;;0.63;;
11187;SDS011;5650;52.700;7.306;2022-07-23T12:05:48;1.85;;;0.80;;
11187;SDS011;5650;52.700;7.306;2022-07-23T12:08:22;2.90;;;0.82;;
11187;SDS011;5650;52.700;7.306;2022-07-23T12:10:55;1.00;;;0.65;;
11187;SDS011;5650;52.700;7.306;2022-07-23T12:13:28;2.13;;;0.90;;
11187;SDS011;5650;52.700;7.306;2022-07-23T12:15:56;1.00;;;0.65;;
11187;SDS011;5650;52.700;7.306;2022-07-23T12:18:26;1.58;;;0.50;;
11187;SDS011;5650;52.700;7.306;2022-07-23T12:20:58;1.52;;;0.70;;
11187;SDS011;5650;52.700;7.306;2022-07-23T12:23:38;0.50;;;0.50;;
11187;SDS011;5650;52.700;7.306;2022-07-23T12:26:20;1.35;;;0.65;;
11187;SDS011;5650;52.700;7.306;2022-07-23T12:28:53;0.93;;;0.60;;
11187;SDS011;5650;52.700;7.306;2022-07-23T12:31:25;3.25;;;0.60;;
11187;SDS011;5650;52.700;7.306;2022-07-23T12:33:52;1.95;;;0.90;;
11187;SDS011;5650;52.700;7.306;2022-07-23T12:36:20;0.80;;;0.75;;
11187;SDS011;5650;52.700;7.306;2022-07-23T12:39:04;0.85;;;0.63;;
11187;SDS011;5650;52.700;7.306;2022-07-23T12:44:22;3.08;;;0.82;;
11187;SDS011;5650;52.700;7.306;2022-07-23T12:46:58;3.13;;;1.02;;
11187;SDS011;5650;52.700;7.306;2022-07-23T12:49:50;2.60;;;0.90;;
11187;SDS011;5650;52.700;7.306;2022-07-23T12:52:21;1.75;;;0.85;;
11187;SDS011;5650;52.700;7.306;2022-07-23T12:54:55;4.05;;;0.85;;
11187;SDS011;5650;52.700;7.306;2022-07-23T13:00:16;2.20;;;0.80;;
11187;SDS011;5650;52.700;7.306;2022-07-23T13:02:45;0.93;;;0.63;;
11187;SDS011;5650;52.700;7.306;2022-07-23T13:05:15;1.00;;;0.70;;
11187;SDS011;5650;52.700;7.306;2022-07-23T13:07:44;1.38;;;0.70;;
11187;SDS011;5650;52.700;7.306;2022-07-23T13:10:11;1.40;;;0.90;;
11187;SDS011;5650;52.700;7.306;2022-07-23T13:12:41;3.22;;;0.80;;
11187;SDS011;5650;52.700;7.306;2022-07-23T13:15:09;2.33;;;0.98;;
11187;SDS011;5650;52.700;7.306;2022-07-23T13:17:36;1.13;;;0.82;;
11187;SDS011;5650;52.700;7.306;2022-07-23T13:20:19;2.38;;;1.00;;
11187;SDS011;5650;52.700;7.306;2022-07-23T13:22:48;0.85;;;0.80;;
11187;SDS011;5650;52.700;7.306;2022-07-23T13:25:18;4.13;;;0.75;;
11187;SDS011;5650;52.700;7.306;2022-07-23T13:27:45;2.15;;;1.00;;
11187;SDS011;5650;52.700;7.306;2022-07-23T13:30:12;1.65;;;1.10;;
11187;SDS011;5650;52.700;7.306;2022-07-23T13:32:47;2.75;;;0.90;;
11187;SDS011;5650;52.700;7.306;2022-07-23T13:35:20;1.50;;;0.93;;
11187;SDS011;5650;52.700;7.306;2022-07-23T13:37:51;1.85;;;0.88;;
11187;SDS011;5650;52.700;7.306;2022-07-23T13:40:18;5.00;;;1.23;;
11187;SDS011;5650;52.700;7.306;2022-07-23T13:42:46;1.90;;;1.00;;
11187;SDS011;5650;52.700;7.306;2022-07-23T13:45:19;2.00;;;1.20;;
11187;SDS011;5650;52.700;7.306;2022-07-23T13:47:49;3.78;;;1.10;;
11187;SDS011;5650;52.700;7.306;2022-07-23T13:50:16;1.17;;;0.98;;
11187;SDS011;5650;52.700;7.306;2022-07-23T13:52:43;2.63;;;1.10;;
11187;SDS011;5650;52.700;7.306;2022-07-23T13:55:12;2.70;;;1.17;;
11187;SDS011;5650;52.700;7.306;2022-07-23T13:57:42;4.68;;;1.23;;
11187;SDS011;5650;52.700;7.306;2022-07-23T14:00:12;1.55;;;1.08;;
11187;SDS011;5650;52.700;7.306;2022-07-23T14:02:41;1.75;;;1.02;;
11187;SDS011;5650;52.700;7.306;2022-07-23T14:05:09;3.17;;;1.00;;
11187;SDS011;5650;52.700;7.306;2022-07-23T14:07:38;1.83;;;1.00;;
11187;SDS011;5650;52.700;7.306;2022-07-23T14:10:15;2.90;;;1.10;;
11187;SDS011;5650;52.700;7.306;2022-07-23T14:12:47;3.17;;;1.40;;
11187;SDS011;5650;52.700;7.306;2022-07-23T14:15:15;1.48;;;1.05;;
11187;SDS011;5650;52.700;7.306;2022-07-23T14:17:43;3.58;;;1.33;;
11187;SDS011;5650;52.700;7.306;2022-07-23T14:20:12;3.50;;;1.20;;
11187;SDS011;5650;52.700;7.306;2022-07-23T14:22:40;3.03;;;1.30;;
11187;SDS011;5650;52.700;7.306;2022-07-23T14:25:08;2.38;;;1.05;;
11187;SDS011;5650;52.700;7.306;2022-07-23T14:27:37;3.45;;;1.00;;
11187;SDS011;5650;52.700;7.306;2022-07-23T14:30:09;1.85;;;1.00;;
11187;SDS011;5650;52.700;7.306;2022-07-23T14:32:40;0.98;;;0.90;;
11187;SDS011;5650;52.700;7.306;2022-07-23T14:35:08;2.10;;;1.20;;
11187;SDS011;5650;52.700;7.306;2022-07-23T14:37:35;1.30;;;1.00;;
11187;SDS011;5650;52.700;7.306;2022-07-23T14:40:02;2.20;;;1.20;;
11187;SDS011;5650;52.700;7.306;2022-07-23T14:42:38;3.00;;;1.30;;
11187;SDS011;5650;52.700;7.306;2022-07-23T14:45:05;2.20;;;1.10;;
11187;SDS011;5650;52.700;7.306;2022-07-23T14:47:33;3.38;;;1.20;;
11187;SDS011;5650;52.700;7.306;2022-07-23T14:50:00;3.33;;;1.35;;
11187;SDS011;5650;52.700;7.306;2022-07-23T14:52:30;3.30;;;1.30;;
11187;SDS011;5650;52.700;7.306;2022-07-23T14:55:03;1.95;;;1.15;;
11187;SDS011;5650;52.700;7.306;2022-07-23T14:57:34;2.90;;;1.17;;
11187;SDS011;5650;52.700;7.306;2022-07-23T15:00:05;1.38;;;1.10;;
11187;SDS011;5650;52.700;7.306;2022-07-23T15:02:39;4.30;;;2.33;;
11187;SDS011;5650;52.700;7.306;2022-07-23T15:05:12;3.10;;;2.05;;
11187;SDS011;5650;52.700;7.306;2022-07-23T15:07:45;2.05;;;1.00;;
11187;SDS011;5650;52.700;7.306;2022-07-23T15:10:15;1.92;;;1.00;;
11187;SDS011;5650;52.700;7.306;2022-07-23T15:12:45;1.50;;;1.02;;
11187;SDS011;5650;52.700;7.306;2022-07-23T15:15:17;1.63;;;1.00;;
11187;SDS011;5650;52.700;7.306;2022-07-23T15:17:44;2.00;;;1.00;;
11187;SDS011;5650;52.700;7.306;2022-07-23T15:20:14;4.45;;;1.05;;
11187;SDS011;5650;52.700;7.306;2022-07-23T15:22:41;3.42;;;1.00;;
11187;SDS011;5650;52.700;7.306;2022-07-23T15:25:10;2.03;;;1.00;;
11187;SDS011;5650;52.700;7.306;2022-07-23T15:27:47;1.38;;;1.10;;
11187;SDS011;5650;52.700;7.306;2022-07-23T15:30:18;3.05;;;1.20;;
11187;SDS011;5650;52.700;7.306;2022-07-23T15:32:46;4.43;;;1.02;;
11187;SDS011;5650;52.700;7.306;2022-07-23T15:35:22;1.13;;;0.80;;
11187;SDS011;5650;52.700;7.306;2022-07-23T15:37:49;1.83;;;1.13;;
11187;SDS011;5650;52.700;7.306;2022-07-23T15:40:16;1.95;;;1.20;;
11187;SDS011;5650;52.700;7.306;2022-07-23T15:42:43;3.22;;;1.20;;
11187;SDS011;5650;52.700;7.306;2022-07-23T15:45:16;2.35;;;0.98;;
11187;SDS011;5650;52.700;7.306;2022-07-23T15:47:47;2.97;;;1.17;;
11187;SDS011;5650;52.700;7.306;2022-07-23T15:50:21;4.60;;;1.65;;